Share

Alma, WI

8:14 PM CDT on April 23, 2014 (GMT -0500)
Minnesota (KMNALTUR2) Elev 1165 ft | 44.07 °N, 91.94 °W | Change Station

Current weather conditions updated 1 second ago

Overcast
Overcast
41.9 °F
Feels Like 35 °F
N
13.0
Wind Variable Wind from SSE
Gusts 16.8 mph
Sunrise 6:10 AM
Sunset 8:01 PM
Moon Waning Crescent

Tomorrow is forecast to be Warmer than today. Cloudy, periods of rain.

Pressure 29.98 in
Visibility 10.0 miles
Clouds Overcast 6000 ft
Windchill 35 °F
Dew Point 37 °F
Humidity 83%
Rainfall 0.00 in
Snow Depth Not available.
UV 0 out of 16
Pollen 9.70 out of 12
Air Quality Not available.
Flu Activity Sporadic
METAR KONA 240054Z AUTO 12008KT 10SM RA OVC060 06/03 A2998 RMK AO2 P0003

More Conditions Fewer Conditions

Pressure 29.98 in
Visibility 10.0 miles
Clouds Overcast 6000 ft
Windchill 35 °F
Dew Point 37 °F
Humidity 83%
Rainfall 0.00 in
Snow Depth Not available.
UV 0 out of 16
Pollen 9.70 out of 12
Air Quality Not available.
Flu Activity Sporadic
METAR KONA 240054Z AUTO 12008KT 10SM RA OVC060 06/03 A2998 RMK AO2 P0003

More Conditions Fewer Conditions

10-Day Weather Forecast

Almanac

Astronomy

Apr. 23, 2014 Rise Set
Actual Time 6:10 AM CDT 8:01 PM CDT
Civil Twilight 5:39 AM CDT 8:33 PM CDT
Nautical Twilight 5:01 AM CDT 9:11 PM CDT
Astronomical Twilight 4:20 AM CDT 9:52 PM CDT
Moon 2:56 AM CDT (4/23) 1:57 PM CDT (4/23)
Length of Visible Light 14h 53m
Length of Day
13h 51m
Tomorrow will be 2m 48s longer.
Waning Crescent, 31% of the Moon is Illuminated
Today
Waning Crescent
Apr 29
New
May 6
First Quarter
May 14
Full
May 21
Last Quarter

Today's Extremes

State Highs State Lows

Community

  • Nestled In
    Nestled In
  • Stunning Sunrise
    Stunning Sunrise
  • spring flowers
    spring flowers
  • Earth Day Spectrum Ove' Blue
    Earth Day Spectrum Ove' Blue
  • BARN B&W
    BARN B&W

WunderPhotos

Upload Photos

1,704,485 photos uploaded!

Nearby

Snow Depth

Station Depth Elevation
No new snow has been reported.

Coastal Water Temperatures

Place Temperature
No Stations Reporting

Earthquake Activity

City Distance Mag. Time & Date
No recent earthquake activity has been reported nearby.
Minimum magnitude displayed is 2.5.

Nearby Weather Stations

Station Location Temp. Windchill Dew Point Humidity Wind Precip. Elev Updated Type
Minnesota, Altura, MN 41.9 °F 35 °F 37 °F 83% SSE  at  13.0 mph 0.00 in / hr 1165 ft 8:14 PM CDT Rapid Fire
Rics Igloo7, Lake City, MN 42.9 °F 43 °F 41 °F 93% East  at  3.0 mph 0.07 in / hr 733 ft 8:14 PM CDT Rapid Fire
SIGHT-SEA-ER II, Lake City, MN 43.0 °F 43 °F 41 °F 93% ESE  at  3.0 mph 0.05 in / hr 728 ft 8:03 PM CDT Normal

Show More Stations Show Fewer Stations

What do you think?

We're not finished. Please let us know what you like, what you don't like, and what you are still missing.